Roche Harbor, Washington
Current Conditions -  °F | °C
As of 8:53 PM on Tuesday 21 Oct 2014 (Local Time) from KFHR Reporting Station
Overcast Overcast  
Wind Chill: 57°   Ceiling: 8500
Heat Index: 57°   Visibility: 10mi
Dew Point: 49°   Wind: 22mph
Humidity: 74%   Direction: 130°SE
Pressure: 29.69"   Gusts: 36mph
Location:  48.5377°N, 123.083°W
Report Text: KFHR 220353Z AUTO 13019G31KT 10SM FEW070 OVC085 14/09 A2969 RMK AO2 PK WND 13032/0337 SLP054 T01390094
Loading
Personal Weather Stations






























Interactive Weather Map New forecast layout! Learn more

10-Day Weather Forecast

Advertisements
Track Severe Weather on mobile